sensor_id;sensor_type;location;lat;lon;timestamp;temperature;humidity
13928;DHT22;7036;50.834;4.718;2023-02-15T00:01:37;19.20;47.10
13928;DHT22;7036;50.834;4.718;2023-02-15T00:04:04;19.20;47.10
13928;DHT22;7036;50.834;4.718;2023-02-15T00:06:31;19.20;47.10
13928;DHT22;7036;50.834;4.718;2023-02-15T00:09:00;19.20;47.00
13928;DHT22;7036;50.834;4.718;2023-02-15T00:11:27;19.20;47.00
13928;DHT22;7036;50.834;4.718;2023-02-15T00:14:24;19.20;47.10
13928;DHT22;7036;50.834;4.718;2023-02-15T00:16:51;19.20;47.10
13928;DHT22;7036;50.834;4.718;2023-02-15T00:19:19;19.10;47.00
13928;DHT22;7036;50.834;4.718;2023-02-15T00:21:46;19.10;47.00
13928;DHT22;7036;50.834;4.718;2023-02-15T00:24:13;19.10;47.00
13928;DHT22;7036;50.834;4.718;2023-02-15T00:26:40;19.10;47.00
13928;DHT22;7036;50.834;4.718;2023-02-15T00:29:08;19.10;47.00
13928;DHT22;7036;50.834;4.718;2023-02-15T00:31:35;19.10;46.90
13928;DHT22;7036;50.834;4.718;2023-02-15T00:34:02;19.10;46.90
13928;DHT22;7036;50.834;4.718;2023-02-15T00:36:29;19.00;46.90
13928;DHT22;7036;50.834;4.718;2023-02-15T00:38:56;19.00;46.90
13928;DHT22;7036;50.834;4.718;2023-02-15T00:41:23;19.00;46.90
13928;DHT22;7036;50.834;4.718;2023-02-15T00:43:51;19.00;46.80
13928;DHT22;7036;50.834;4.718;2023-02-15T00:46:18;19.00;46.90
13928;DHT22;7036;50.834;4.718;2023-02-15T00:48:45;19.00;46.90
13928;DHT22;7036;50.834;4.718;2023-02-15T00:51:12;19.00;46.90
13928;DHT22;7036;50.834;4.718;2023-02-15T00:53:39;19.00;46.90
13928;DHT22;7036;50.834;4.718;2023-02-15T00:56:07;19.00;46.90
13928;DHT22;7036;50.834;4.718;2023-02-15T00:58:34;19.00;46.90
13928;DHT22;7036;50.834;4.718;2023-02-15T01:01:05;18.90;46.90
13928;DHT22;7036;50.834;4.718;2023-02-15T01:03:31;18.90;46.80
13928;DHT22;7036;50.834;4.718;2023-02-15T01:05:58;18.90;46.80
13928;DHT22;7036;50.834;4.718;2023-02-15T01:08:25;18.90;46.80
13928;DHT22;7036;50.834;4.718;2023-02-15T01:10:52;18.90;46.80
13928;DHT22;7036;50.834;4.718;2023-02-15T01:13:20;18.90;46.80
13928;DHT22;7036;50.834;4.718;2023-02-15T01:15:56;18.90;46.80
13928;DHT22;7036;50.834;4.718;2023-02-15T01:18:14;18.90;46.80
13928;DHT22;7036;50.834;4.718;2023-02-15T01:20:41;18.90;46.80
13928;DHT22;7036;50.834;4.718;2023-02-15T01:23:09;18.80;46.80
13928;DHT22;7036;50.834;4.718;2023-02-15T01:25:36;18.80;46.80
13928;DHT22;7036;50.834;4.718;2023-02-15T01:28:03;18.80;46.80
13928;DHT22;7036;50.834;4.718;2023-02-15T01:30:31;18.80;46.80
13928;DHT22;7036;50.834;4.718;2023-02-15T01:32:58;18.80;46.80
13928;DHT22;7036;50.834;4.718;2023-02-15T01:35:25;18.80;46.80
13928;DHT22;7036;50.834;4.718;2023-02-15T01:37:52;18.70;46.80
13928;DHT22;7036;50.834;4.718;2023-02-15T01:40:19;18.70;46.80
13928;DHT22;7036;50.834;4.718;2023-02-15T01:42:49;18.70;46.80
13928;DHT22;7036;50.834;4.718;2023-02-15T01:50:30;18.70;46.90
13928;DHT22;7036;50.834;4.718;2023-02-15T01:53:01;18.70;46.70
13928;DHT22;7036;50.834;4.718;2023-02-15T01:55:27;18.70;46.70
13928;DHT22;7036;50.834;4.718;2023-02-15T01:57:53;18.70;46.70
13928;DHT22;7036;50.834;4.718;2023-02-15T02:00:20;18.70;46.70
13928;DHT22;7036;50.834;4.718;2023-02-15T02:02:48;18.70;46.70
13928;DHT22;7036;50.834;4.718;2023-02-15T02:05:15;18.70;46.60
13928;DHT22;7036;50.834;4.718;2023-02-15T02:07:43;18.60;46.60
13928;DHT22;7036;50.834;4.718;2023-02-15T02:10:12;18.60;46.60
13928;DHT22;7036;50.834;4.718;2023-02-15T02:12:37;18.60;46.60
13928;DHT22;7036;50.834;4.718;2023-02-15T02:15:04;18.60;46.60
13928;DHT22;7036;50.834;4.718;2023-02-15T02:34:10;18.50;46.50
13928;DHT22;7036;50.834;4.718;2023-02-15T02:36:50;18.50;46.60
13928;DHT22;7036;50.834;4.718;2023-02-15T02:39:30;18.50;46.60
13928;DHT22;7036;50.834;4.718;2023-02-15T02:42:02;18.50;46.50
13928;DHT22;7036;50.834;4.718;2023-02-15T02:44:43;18.50;46.50
13928;DHT22;7036;50.834;4.718;2023-02-15T02:49:41;18.40;46.40
13928;DHT22;7036;50.834;4.718;2023-02-15T02:52:33;18.40;46.40
13928;DHT22;7036;50.834;4.718;2023-02-15T02:54:34;18.40;46.40
13928;DHT22;7036;50.834;4.718;2023-02-15T02:57:03;18.40;46.30
13928;DHT22;7036;50.834;4.718;2023-02-15T02:59:34;18.40;46.30
13928;DHT22;7036;50.834;4.718;2023-02-15T03:02:17;18.40;46.30
13928;DHT22;7036;50.834;4.718;2023-02-15T03:04:44;18.40;46.30
13928;DHT22;7036;50.834;4.718;2023-02-15T03:07:11;18.40;46.40
13928;DHT22;7036;50.834;4.718;2023-02-15T03:09:38;18.40;46.30
13928;DHT22;7036;50.834;4.718;2023-02-15T03:12:23;18.40;46.30
13928;DHT22;7036;50.834;4.718;2023-02-15T03:14:50;18.40;46.30
13928;DHT22;7036;50.834;4.718;2023-02-15T03:17:15;18.40;46.40
13928;DHT22;7036;50.834;4.718;2023-02-15T03:19:43;18.30;46.30
13928;DHT22;7036;50.834;4.718;2023-02-15T03:23:14;18.40;46.30
13928;DHT22;7036;50.834;4.718;2023-02-15T03:25:01;18.30;46.40
13928;DHT22;7036;50.834;4.718;2023-02-15T03:27:33;18.30;46.20
13928;DHT22;7036;50.834;4.718;2023-02-15T03:29:58;18.30;46.20
13928;DHT22;7036;50.834;4.718;2023-02-15T03:32:25;18.30;46.20
13928;DHT22;7036;50.834;4.718;2023-02-15T03:34:52;18.30;46.20
13928;DHT22;7036;50.834;4.718;2023-02-15T03:37:25;18.30;46.20
13928;DHT22;7036;50.834;4.718;2023-02-15T03:39:53;18.30;46.30
13928;DHT22;7036;50.834;4.718;2023-02-15T03:44:59;18.20;46.20
13928;DHT22;7036;50.834;4.718;2023-02-15T03:47:35;18.20;46.10
13928;DHT22;7036;50.834;4.718;2023-02-15T03:50:19;18.20;46.10
13928;DHT22;7036;50.834;4.718;2023-02-15T03:53:04;18.20;46.10
13928;DHT22;7036;50.834;4.718;2023-02-15T03:55:30;18.20;46.10
13928;DHT22;7036;50.834;4.718;2023-02-15T03:57:58;18.20;46.10
13928;DHT22;7036;50.834;4.718;2023-02-15T04:00:48;18.20;46.10
13928;DHT22;7036;50.834;4.718;2023-02-15T04:03:36;18.20;46.10
13928;DHT22;7036;50.834;4.718;2023-02-15T04:06:01;18.20;46.20
13928;DHT22;7036;50.834;4.718;2023-02-15T04:08:28;18.20;46.10
13928;DHT22;7036;50.834;4.718;2023-02-15T04:11:14;18.20;46.10
13928;DHT22;7036;50.834;4.718;2023-02-15T04:13:40;18.20;46.10
13928;DHT22;7036;50.834;4.718;2023-02-15T04:16:08;18.10;46.00
13928;DHT22;7036;50.834;4.718;2023-02-15T04:18:41;18.10;46.10
13928;DHT22;7036;50.834;4.718;2023-02-15T04:21:27;18.10;46.10
13928;DHT22;7036;50.834;4.718;2023-02-15T04:24:12;18.10;46.20
13928;DHT22;7036;50.834;4.718;2023-02-15T04:26:58;18.10;46.20
13928;DHT22;7036;50.834;4.718;2023-02-15T04:29:25;18.10;46.10
13928;DHT22;7036;50.834;4.718;2023-02-15T04:31:52;18.10;46.00
13928;DHT22;7036;50.834;4.718;2023-02-15T04:34:19;18.10;46.00
13928;DHT22;7036;50.834;4.718;2023-02-15T04:36:46;18.10;46.00
13928;DHT22;7036;50.834;4.718;2023-02-15T04:39:14;18.10;46.00
13928;DHT22;7036;50.834;4.718;2023-02-15T04:41:41;18.10;46.00
13928;DHT22;7036;50.834;4.718;2023-02-15T04:44:08;18.10;46.00
13928;DHT22;7036;50.834;4.718;2023-02-15T04:46:36;18.10;46.00
13928;DHT22;7036;50.834;4.718;2023-02-15T04:49:03;18.00;45.90
13928;DHT22;7036;50.834;4.718;2023-02-15T04:51:30;18.10;45.90
13928;DHT22;7036;50.834;4.718;2023-02-15T04:53:57;18.00;45.90
13928;DHT22;7036;50.834;4.718;2023-02-15T04:56:25;18.00;45.80
13928;DHT22;7036;50.834;4.718;2023-02-15T04:58:52;18.00;45.80
13928;DHT22;7036;50.834;4.718;2023-02-15T05:01:19;18.00;45.80
13928;DHT22;7036;50.834;4.718;2023-02-15T05:03:48;18.00;45.90
13928;DHT22;7036;50.834;4.718;2023-02-15T05:06:15;18.00;45.80
13928;DHT22;7036;50.834;4.718;2023-02-15T05:08:43;18.00;45.80
13928;DHT22;7036;50.834;4.718;2023-02-15T05:11:10;18.00;45.80
13928;DHT22;7036;50.834;4.718;2023-02-15T05:13:37;18.00;45.70
13928;DHT22;7036;50.834;4.718;2023-02-15T05:16:04;18.10;45.80
13928;DHT22;7036;50.834;4.718;2023-02-15T05:18:31;18.00;45.70
13928;DHT22;7036;50.834;4.718;2023-02-15T05:20:59;18.00;45.70
13928;DHT22;7036;50.834;4.718;2023-02-15T05:23:26;18.00;45.60
13928;DHT22;7036;50.834;4.718;2023-02-15T05:25:53;18.00;45.60
13928;DHT22;7036;50.834;4.718;2023-02-15T05:28:39;18.10;45.70
13928;DHT22;7036;50.834;4.718;2023-02-15T05:31:13;18.10;45.60
13928;DHT22;7036;50.834;4.718;2023-02-15T05:33:39;18.10;45.60
13928;DHT22;7036;50.834;4.718;2023-02-15T05:36:06;18.10;45.60
13928;DHT22;7036;50.834;4.718;2023-02-15T05:38:34;18.10;45.60
13928;DHT22;7036;50.834;4.718;2023-02-15T05:41:01;18.10;45.50
13928;DHT22;7036;50.834;4.718;2023-02-15T05:43:28;18.10;45.50
13928;DHT22;7036;50.834;4.718;2023-02-15T05:45:55;18.10;45.50
13928;DHT22;7036;50.834;4.718;2023-02-15T05:48:24;18.10;45.50
13928;DHT22;7036;50.834;4.718;2023-02-15T05:50:59;18.10;45.50
13928;DHT22;7036;50.834;4.718;2023-02-15T05:53:26;18.10;45.40
13928;DHT22;7036;50.834;4.718;2023-02-15T05:55:54;18.10;45.50
13928;DHT22;7036;50.834;4.718;2023-02-15T05:58:21;18.10;45.60
13928;DHT22;7036;50.834;4.718;2023-02-15T06:00:48;18.10;45.40
13928;DHT22;7036;50.834;4.718;2023-02-15T06:03:15;18.10;45.40
13928;DHT22;7036;50.834;4.718;2023-02-15T06:05:42;18.10;45.40
13928;DHT22;7036;50.834;4.718;2023-02-15T06:08:10;18.10;45.40
13928;DHT22;7036;50.834;4.718;2023-02-15T06:10:37;18.10;45.40
13928;DHT22;7036;50.834;4.718;2023-02-15T06:13:04;18.10;45.30
13928;DHT22;7036;50.834;4.718;2023-02-15T06:15:32;18.20;45.30
13928;DHT22;7036;50.834;4.718;2023-02-15T06:17:59;18.20;45.10
13928;DHT22;7036;50.834;4.718;2023-02-15T06:20:26;18.30;45.10
13928;DHT22;7036;50.834;4.718;2023-02-15T06:22:53;18.30;45.00
13928;DHT22;7036;50.834;4.718;2023-02-15T06:25:20;18.40;44.90
13928;DHT22;7036;50.834;4.718;2023-02-15T06:27:48;18.40;44.90
13928;DHT22;7036;50.834;4.718;2023-02-15T06:30:15;18.50;44.90
13928;DHT22;7036;50.834;4.718;2023-02-15T06:32:42;18.50;44.80
13928;DHT22;7036;50.834;4.718;2023-02-15T06:35:09;18.60;44.80
13928;DHT22;7036;50.834;4.718;2023-02-15T06:37:37;18.60;44.70
13928;DHT22;7036;50.834;4.718;2023-02-15T06:40:04;18.60;44.50
13928;DHT22;7036;50.834;4.718;2023-02-15T06:42:31;18.60;44.50
13928;DHT22;7036;50.834;4.718;2023-02-15T06:44:59;18.70;44.50
13928;DHT22;7036;50.834;4.718;2023-02-15T06:47:26;18.70;44.50
13928;DHT22;7036;50.834;4.718;2023-02-15T06:49:53;18.70;44.40
13928;DHT22;7036;50.834;4.718;2023-02-15T06:52:20;18.60;44.40
13928;DHT22;7036;50.834;4.718;2023-02-15T06:54:48;18.60;44.40
13928;DHT22;7036;50.834;4.718;2023-02-15T06:57:15;18.60;44.40
13928;DHT22;7036;50.834;4.718;2023-02-15T06:59:42;18.60;44.40
13928;DHT22;7036;50.834;4.718;2023-02-15T07:02:12;18.60;44.40
13928;DHT22;7036;50.834;4.718;2023-02-15T07:04:39;18.60;44.50
13928;DHT22;7036;50.834;4.718;2023-02-15T07:07:10;18.50;44.50
13928;DHT22;7036;50.834;4.718;2023-02-15T07:09:37;18.50;44.50
13928;DHT22;7036;50.834;4.718;2023-02-15T07:12:04;18.50;44.40
13928;DHT22;7036;50.834;4.718;2023-02-15T07:14:49;18.50;43.80
13928;DHT22;7036;50.834;4.718;2023-02-15T07:17:16;18.50;44.40
13928;DHT22;7036;50.834;4.718;2023-02-15T07:19:43;18.50;44.40
13928;DHT22;7036;50.834;4.718;2023-02-15T07:22:11;18.40;44.30
13928;DHT22;7036;50.834;4.718;2023-02-15T07:24:38;18.40;44.40
13928;DHT22;7036;50.834;4.718;2023-02-15T07:27:06;18.40;44.50
13928;DHT22;7036;50.834;4.718;2023-02-15T07:29:32;18.40;44.50
13928;DHT22;7036;50.834;4.718;2023-02-15T07:32:00;18.40;44.70
13928;DHT22;7036;50.834;4.718;2023-02-15T07:34:27;18.40;44.80
13928;DHT22;7036;50.834;4.718;2023-02-15T07:36:54;18.30;44.90
13928;DHT22;7036;50.834;4.718;2023-02-15T07:39:21;18.30;44.80
13928;DHT22;7036;50.834;4.718;2023-02-15T07:41:49;18.30;44.70
13928;DHT22;7036;50.834;4.718;2023-02-15T07:44:16;18.30;44.70
13928;DHT22;7036;50.834;4.718;2023-02-15T07:46:43;18.40;44.90
13928;DHT22;7036;50.834;4.718;2023-02-15T07:49:11;18.40;45.00
13928;DHT22;7036;50.834;4.718;2023-02-15T07:51:38;18.50;45.00
13928;DHT22;7036;50.834;4.718;2023-02-15T07:54:05;18.50;45.00
13928;DHT22;7036;50.834;4.718;2023-02-15T07:56:33;18.60;45.00
13928;DHT22;7036;50.834;4.718;2023-02-15T07:59:00;18.60;45.00
13928;DHT22;7036;50.834;4.718;2023-02-15T08:01:34;18.70;45.00
13928;DHT22;7036;50.834;4.718;2023-02-15T08:04:00;18.70;44.90
13928;DHT22;7036;50.834;4.718;2023-02-15T08:06:28;18.80;45.00
13928;DHT22;7036;50.834;4.718;2023-02-15T08:08:54;18.80;44.90
13928;DHT22;7036;50.834;4.718;2023-02-15T08:11:23;18.90;45.20
13928;DHT22;7036;50.834;4.718;2023-02-15T08:13:58;18.90;45.20
13928;DHT22;7036;50.834;4.718;2023-02-15T08:16:40;19.00;45.30
13928;DHT22;7036;50.834;4.718;2023-02-15T08:19:17;19.00;45.70
13928;DHT22;7036;50.834;4.718;2023-02-15T08:21:46;19.00;45.50
13928;DHT22;7036;50.834;4.718;2023-02-15T08:24:12;19.10;45.50
13928;DHT22;7036;50.834;4.718;2023-02-15T08:26:39;19.10;45.60
13928;DHT22;7036;50.834;4.718;2023-02-15T08:29:07;19.10;45.50
13928;DHT22;7036;50.834;4.718;2023-02-15T08:31:34;19.10;45.50
13928;DHT22;7036;50.834;4.718;2023-02-15T08:34:01;19.10;45.50
13928;DHT22;7036;50.834;4.718;2023-02-15T08:36:29;19.10;45.50
13928;DHT22;7036;50.834;4.718;2023-02-15T08:38:59;19.10;45.50
13928;DHT22;7036;50.834;4.718;2023-02-15T08:41:26;19.10;45.30
13928;DHT22;7036;50.834;4.718;2023-02-15T08:43:53;19.10;45.40
13928;DHT22;7036;50.834;4.718;2023-02-15T08:46:19;19.10;45.30
13928;DHT22;7036;50.834;4.718;2023-02-15T08:48:46;19.10;45.30
13928;DHT22;7036;50.834;4.718;2023-02-15T08:51:15;19.20;45.30
13928;DHT22;7036;50.834;4.718;2023-02-15T08:53:42;19.20;45.20
13928;DHT22;7036;50.834;4.718;2023-02-15T08:56:08;19.20;44.80
13928;DHT22;7036;50.834;4.718;2023-02-15T08:58:36;19.00;44.00
13928;DHT22;7036;50.834;4.718;2023-02-15T09:01:10;19.00;43.30
13928;DHT22;7036;50.834;4.718;2023-02-15T09:03:36;18.90;43.90
13928;DHT22;7036;50.834;4.718;2023-02-15T09:06:03;19.00;44.30
13928;DHT22;7036;50.834;4.718;2023-02-15T09:08:30;19.10;44.10
13928;DHT22;7036;50.834;4.718;2023-02-15T09:11:11;19.10;44.00
13928;DHT22;7036;50.834;4.718;2023-02-15T09:13:37;19.20;44.00
13928;DHT22;7036;50.834;4.718;2023-02-15T09:16:05;19.20;43.90
13928;DHT22;7036;50.834;4.718;2023-02-15T09:18:31;19.20;43.80
13928;DHT22;7036;50.834;4.718;2023-02-15T09:21:03;19.30;43.70
13928;DHT22;7036;50.834;4.718;2023-02-15T09:23:25;19.30;43.60
13928;DHT22;7036;50.834;4.718;2023-02-15T09:25:52;19.40;43.60
13928;DHT22;7036;50.834;4.718;2023-02-15T09:28:20;19.40;43.70
13928;DHT22;7036;50.834;4.718;2023-02-15T09:30:48;19.40;44.00
13928;DHT22;7036;50.834;4.718;2023-02-15T09:33:15;19.40;43.70
13928;DHT22;7036;50.834;4.718;2023-02-15T09:35:42;19.40;43.80
13928;DHT22;7036;50.834;4.718;2023-02-15T09:38:09;19.40;43.80
13928;DHT22;7036;50.834;4.718;2023-02-15T09:40:38;19.40;43.70
13928;DHT22;7036;50.834;4.718;2023-02-15T09:43:22;19.40;43.60
13928;DHT22;7036;50.834;4.718;2023-02-15T09:46:01;19.50;43.70
13928;DHT22;7036;50.834;4.718;2023-02-15T09:51:29;19.30;44.10
13928;DHT22;7036;50.834;4.718;2023-02-15T09:54:22;19.40;44.00
13928;DHT22;7036;50.834;4.718;2023-02-15T09:56:52;19.30;44.10
13928;DHT22;7036;50.834;4.718;2023-02-15T10:05:10;19.30;44.00
13928;DHT22;7036;50.834;4.718;2023-02-15T10:13:30;19.40;44.00
13928;DHT22;7036;50.834;4.718;2023-02-15T10:19:00;19.40;43.90
13928;DHT22;7036;50.834;4.718;2023-02-15T10:21:34;19.40;43.80
13928;DHT22;7036;50.834;4.718;2023-02-15T10:29:17;19.40;44.00
13928;DHT22;7036;50.834;4.718;2023-02-15T10:31:51;19.50;44.10
13928;DHT22;7036;50.834;4.718;2023-02-15T10:34:38;19.50;44.10
13928;DHT22;7036;50.834;4.718;2023-02-15T10:37:23;19.50;44.20
13928;DHT22;7036;50.834;4.718;2023-02-15T10:43:26;19.50;44.20
13928;DHT22;7036;50.834;4.718;2023-02-15T10:45:19;19.60;44.20
13928;DHT22;7036;50.834;4.718;2023-02-15T10:47:55;19.60;44.10
13928;DHT22;7036;50.834;4.718;2023-02-15T10:58:29;19.80;43.90
13928;DHT22;7036;50.834;4.718;2023-02-15T11:03:48;19.80;43.90
13928;DHT22;7036;50.834;4.718;2023-02-15T11:06:09;19.80;43.80
13928;DHT22;7036;50.834;4.718;2023-02-15T11:08:49;19.90;43.90
13928;DHT22;7036;50.834;4.718;2023-02-15T11:11:24;19.90;43.80
13928;DHT22;7036;50.834;4.718;2023-02-15T11:13:51;19.90;43.70
13928;DHT22;7036;50.834;4.718;2023-02-15T11:16:33;19.90;43.80
13928;DHT22;7036;50.834;4.718;2023-02-15T11:19:05;19.90;43.80
13928;DHT22;7036;50.834;4.718;2023-02-15T11:23:56;20.00;43.70
13928;DHT22;7036;50.834;4.718;2023-02-15T11:28:59;20.00;43.80
13928;DHT22;7036;50.834;4.718;2023-02-15T11:31:25;20.00;43.80
13928;DHT22;7036;50.834;4.718;2023-02-15T11:33:56;20.00;43.90
13928;DHT22;7036;50.834;4.718;2023-02-15T11:36:27;20.00;43.90
13928;DHT22;7036;50.834;4.718;2023-02-15T11:38:56;20.00;43.80
13928;DHT22;7036;50.834;4.718;2023-02-15T11:41:24;20.10;43.80
13928;DHT22;7036;50.834;4.718;2023-02-15T11:46:21;20.10;43.70
13928;DHT22;7036;50.834;4.718;2023-02-15T11:48:49;20.10;43.70
13928;DHT22;7036;50.834;4.718;2023-02-15T11:51:20;20.10;43.70
13928;DHT22;7036;50.834;4.718;2023-02-15T11:53:43;20.10;43.80
13928;DHT22;7036;50.834;4.718;2023-02-15T11:56:17;20.10;43.70
13928;DHT22;7036;50.834;4.718;2023-02-15T12:01:28;20.20;43.80
13928;DHT22;7036;50.834;4.718;2023-02-15T12:03:52;20.20;43.70
13928;DHT22;7036;50.834;4.718;2023-02-15T12:06:26;20.20;43.70
13928;DHT22;7036;50.834;4.718;2023-02-15T12:09:13;20.20;43.70
13928;DHT22;7036;50.834;4.718;2023-02-15T12:11:36;20.20;43.70
13928;DHT22;7036;50.834;4.718;2023-02-15T12:14:03;20.20;43.80
13928;DHT22;7036;50.834;4.718;2023-02-15T12:16:29;20.20;43.80
13928;DHT22;7036;50.834;4.718;2023-02-15T12:18:56;20.20;43.80
13928;DHT22;7036;50.834;4.718;2023-02-15T12:21:27;20.30;43.90
13928;DHT22;7036;50.834;4.718;2023-02-15T12:23:54;20.30;44.00
13928;DHT22;7036;50.834;4.718;2023-02-15T12:26:30;20.30;44.30
13928;DHT22;7036;50.834;4.718;2023-02-15T12:29:00;20.20;44.70
13928;DHT22;7036;50.834;4.718;2023-02-15T12:31:43;20.20;44.50
13928;DHT22;7036;50.834;4.718;2023-02-15T12:36:51;20.30;44.90
13928;DHT22;7036;50.834;4.718;2023-02-15T12:39:21;20.30;45.40
13928;DHT22;7036;50.834;4.718;2023-02-15T12:44:27;20.40;45.40
13928;DHT22;7036;50.834;4.718;2023-02-15T12:49:23;20.30;45.40
13928;DHT22;7036;50.834;4.718;2023-02-15T12:52:02;20.30;45.40
13928;DHT22;7036;50.834;4.718;2023-02-15T12:56:56;20.30;45.60
13928;DHT22;7036;50.834;4.718;2023-02-15T12:59:23;20.30;45.50
13928;DHT22;7036;50.834;4.718;2023-02-15T13:01:51;20.40;45.70
13928;DHT22;7036;50.834;4.718;2023-02-15T13:04:22;20.40;45.90
13928;DHT22;7036;50.834;4.718;2023-02-15T13:06:49;20.40;46.00
13928;DHT22;7036;50.834;4.718;2023-02-15T13:09:17;20.40;46.00
13928;DHT22;7036;50.834;4.718;2023-02-15T13:11:43;20.40;45.90
13928;DHT22;7036;50.834;4.718;2023-02-15T13:14:17;20.40;45.90
13928;DHT22;7036;50.834;4.718;2023-02-15T13:16:46;20.40;46.30
13928;DHT22;7036;50.834;4.718;2023-02-15T13:21:41;20.40;46.40
13928;DHT22;7036;50.834;4.718;2023-02-15T13:24:29;20.40;46.60
13928;DHT22;7036;50.834;4.718;2023-02-15T13:26:57;20.40;46.60
13928;DHT22;7036;50.834;4.718;2023-02-15T13:29:26;20.40;46.70
13928;DHT22;7036;50.834;4.718;2023-02-15T13:31:50;20.50;46.90
13928;DHT22;7036;50.834;4.718;2023-02-15T13:34:22;20.40;47.00
13928;DHT22;7036;50.834;4.718;2023-02-15T13:39:45;20.40;46.80
13928;DHT22;7036;50.834;4.718;2023-02-15T13:52:46;20.30;46.30
13928;DHT22;7036;50.834;4.718;2023-02-15T13:55:43;20.30;46.30
13928;DHT22;7036;50.834;4.718;2023-02-15T14:14:09;20.30;46.90
13928;DHT22;7036;50.834;4.718;2023-02-15T14:16:42;20.30;47.00
13928;DHT22;7036;50.834;4.718;2023-02-15T14:21:50;20.30;47.10
13928;DHT22;7036;50.834;4.718;2023-02-15T14:29:46;20.40;47.60
13928;DHT22;7036;50.834;4.718;2023-02-15T14:31:49;20.40;47.60
13928;DHT22;7036;50.834;4.718;2023-02-15T14:34:22;20.40;47.70
13928;DHT22;7036;50.834;4.718;2023-02-15T14:36:45;20.40;47.60
13928;DHT22;7036;50.834;4.718;2023-02-15T14:39:55;20.40;47.60
13928;DHT22;7036;50.834;4.718;2023-02-15T14:42:03;20.40;47.70
13928;DHT22;7036;50.834;4.718;2023-02-15T14:44:35;20.40;47.70
13928;DHT22;7036;50.834;4.718;2023-02-15T14:47:08;20.40;47.80
13928;DHT22;7036;50.834;4.718;2023-02-15T14:49:33;20.40;47.80
13928;DHT22;7036;50.834;4.718;2023-02-15T14:52:09;20.40;47.80
13928;DHT22;7036;50.834;4.718;2023-02-15T14:59:36;20.40;47.70
13928;DHT22;7036;50.834;4.718;2023-02-15T15:04:40;20.40;47.70
13928;DHT22;7036;50.834;4.718;2023-02-15T15:09:38;20.40;47.70
13928;DHT22;7036;50.834;4.718;2023-02-15T15:14:50;20.40;48.00
13928;DHT22;7036;50.834;4.718;2023-02-15T15:22:43;20.40;47.90
13928;DHT22;7036;50.834;4.718;2023-02-15T15:27:59;20.40;47.90
13928;DHT22;7036;50.834;4.718;2023-02-15T15:41:16;20.40;48.00
13928;DHT22;7036;50.834;4.718;2023-02-15T15:49:14;20.40;48.20
13928;DHT22;7036;50.834;4.718;2023-02-15T15:51:39;20.40;48.10
13928;DHT22;7036;50.834;4.718;2023-02-15T15:54:06;20.40;48.10
13928;DHT22;7036;50.834;4.718;2023-02-15T15:56:33;20.40;48.20
13928;DHT22;7036;50.834;4.718;2023-02-15T15:59:03;20.40;48.00
13928;DHT22;7036;50.834;4.718;2023-02-15T16:01:28;20.40;48.10
13928;DHT22;7036;50.834;4.718;2023-02-15T16:03:56;20.40;48.10
13928;DHT22;7036;50.834;4.718;2023-02-15T16:06:27;20.40;48.00
13928;DHT22;7036;50.834;4.718;2023-02-15T16:08:52;20.40;48.00
13928;DHT22;7036;50.834;4.718;2023-02-15T16:11:21;20.40;48.10
13928;DHT22;7036;50.834;4.718;2023-02-15T16:13:47;20.40;48.10
13928;DHT22;7036;50.834;4.718;2023-02-15T16:16:19;20.40;48.10
13928;DHT22;7036;50.834;4.718;2023-02-15T16:18:42;20.40;48.20
13928;DHT22;7036;50.834;4.718;2023-02-15T16:21:13;20.40;48.20
13928;DHT22;7036;50.834;4.718;2023-02-15T16:28:52;20.40;48.20
13928;DHT22;7036;50.834;4.718;2023-02-15T16:31:18;20.40;48.00
13928;DHT22;7036;50.834;4.718;2023-02-15T16:33:45;20.40;47.80
13928;DHT22;7036;50.834;4.718;2023-02-15T16:36:19;20.40;47.80
13928;DHT22;7036;50.834;4.718;2023-02-15T16:41:09;20.40;47.90
13928;DHT22;7036;50.834;4.718;2023-02-15T16:43:36;20.40;48.00
13928;DHT22;7036;50.834;4.718;2023-02-15T16:46:04;20.40;48.20
13928;DHT22;7036;50.834;4.718;2023-02-15T16:48:30;20.40;48.10
13928;DHT22;7036;50.834;4.718;2023-02-15T16:50:58;20.40;48.20
13928;DHT22;7036;50.834;4.718;2023-02-15T16:53:28;20.40;48.20
13928;DHT22;7036;50.834;4.718;2023-02-15T16:56:02;20.40;48.20
13928;DHT22;7036;50.834;4.718;2023-02-15T16:58:38;20.40;48.30
13928;DHT22;7036;50.834;4.718;2023-02-15T17:01:05;20.40;48.30
13928;DHT22;7036;50.834;4.718;2023-02-15T17:03:31;20.40;48.40
13928;DHT22;7036;50.834;4.718;2023-02-15T17:05:59;20.40;48.40
13928;DHT22;7036;50.834;4.718;2023-02-15T17:08:44;20.40;48.50
13928;DHT22;7036;50.834;4.718;2023-02-15T17:11:19;20.40;48.40
13928;DHT22;7036;50.834;4.718;2023-02-15T17:16:33;20.40;48.40
13928;DHT22;7036;50.834;4.718;2023-02-15T17:19:14;20.30;48.20
13928;DHT22;7036;50.834;4.718;2023-02-15T17:21:41;20.40;48.60
13928;DHT22;7036;50.834;4.718;2023-02-15T17:24:13;20.30;48.40
13928;DHT22;7036;50.834;4.718;2023-02-15T17:26:35;20.20;48.50
13928;DHT22;7036;50.834;4.718;2023-02-15T17:29:10;20.20;48.40
13928;DHT22;7036;50.834;4.718;2023-02-15T17:31:30;20.20;49.20
13928;DHT22;7036;50.834;4.718;2023-02-15T17:33:57;20.20;48.70
13928;DHT22;7036;50.834;4.718;2023-02-15T17:36:28;20.20;48.60
13928;DHT22;7036;50.834;4.718;2023-02-15T17:39:06;20.20;48.70
13928;DHT22;7036;50.834;4.718;2023-02-15T17:41:33;20.30;49.00
13928;DHT22;7036;50.834;4.718;2023-02-15T17:44:03;20.30;48.60
13928;DHT22;7036;50.834;4.718;2023-02-15T17:46:32;20.30;48.50
13928;DHT22;7036;50.834;4.718;2023-02-15T17:48:56;20.30;48.50
13928;DHT22;7036;50.834;4.718;2023-02-15T17:51:30;20.30;48.60
13928;DHT22;7036;50.834;4.718;2023-02-15T17:53:58;20.30;48.40
13928;DHT22;7036;50.834;4.718;2023-02-15T17:56:44;20.30;48.30
13928;DHT22;7036;50.834;4.718;2023-02-15T17:59:10;20.30;48.20
13928;DHT22;7036;50.834;4.718;2023-02-15T18:01:43;20.30;48.40
13928;DHT22;7036;50.834;4.718;2023-02-15T18:04:24;20.30;48.10
13928;DHT22;7036;50.834;4.718;2023-02-15T18:07:09;20.30;48.10
13928;DHT22;7036;50.834;4.718;2023-02-15T18:09:54;20.30;48.10
13928;DHT22;7036;50.834;4.718;2023-02-15T18:12:39;20.30;48.10
13928;DHT22;7036;50.834;4.718;2023-02-15T18:15:07;20.40;48.30
13928;DHT22;7036;50.834;4.718;2023-02-15T18:17:42;20.40;48.60
13928;DHT22;7036;50.834;4.718;2023-02-15T18:22:44;20.40;48.70
13928;DHT22;7036;50.834;4.718;2023-02-15T18:25:15;20.40;48.70
13928;DHT22;7036;50.834;4.718;2023-02-15T18:27:41;20.40;48.70
13928;DHT22;7036;50.834;4.718;2023-02-15T18:30:16;20.40;48.60
13928;DHT22;7036;50.834;4.718;2023-02-15T18:32:41;20.40;48.70
13928;DHT22;7036;50.834;4.718;2023-02-15T18:35:13;20.40;48.80
13928;DHT22;7036;50.834;4.718;2023-02-15T18:37:36;20.40;48.90
13928;DHT22;7036;50.834;4.718;2023-02-15T18:40:03;20.40;48.80
13928;DHT22;7036;50.834;4.718;2023-02-15T18:42:31;20.40;48.90
13928;DHT22;7036;50.834;4.718;2023-02-15T18:44:59;20.40;48.80
13928;DHT22;7036;50.834;4.718;2023-02-15T18:47:25;20.40;48.60
13928;DHT22;7036;50.834;4.718;2023-02-15T18:49:52;20.40;48.60
13928;DHT22;7036;50.834;4.718;2023-02-15T18:52:23;20.40;48.70
13928;DHT22;7036;50.834;4.718;2023-02-15T18:54:52;20.40;48.60